sensor_id;sensor_type;location;lat;lon;timestamp;P1;durP1;ratioP1;P2;durP2;ratioP2
72132;SDS011;60008;50.826;6.896;2023-03-01T00:01:40;11.23;;;4.50;;
72132;SDS011;60008;50.826;6.896;2023-03-01T00:04:26;9.48;;;4.60;;
72132;SDS011;60008;50.826;6.896;2023-03-01T00:07:12;7.77;;;3.73;;
72132;SDS011;60008;50.826;6.896;2023-03-01T00:09:57;9.95;;;4.57;;
72132;SDS011;60008;50.826;6.896;2023-03-01T00:12:42;9.32;;;4.28;;
72132;SDS011;60008;50.826;6.896;2023-03-01T00:15:27;11.88;;;4.60;;
72132;SDS011;60008;50.826;6.896;2023-03-01T00:18:13;12.30;;;5.32;;
72132;SDS011;60008;50.826;6.896;2023-03-01T00:20:57;8.87;;;4.00;;
72132;SDS011;60008;50.826;6.896;2023-03-01T00:23:43;10.63;;;4.47;;
72132;SDS011;60008;50.826;6.896;2023-03-01T00:26:27;11.77;;;4.95;;
72132;SDS011;60008;50.826;6.896;2023-03-01T00:29:13;8.35;;;4.07;;
72132;SDS011;60008;50.826;6.896;2023-03-01T00:31:58;10.70;;;4.70;;
72132;SDS011;60008;50.826;6.896;2023-03-01T00:34:43;9.60;;;4.27;;
72132;SDS011;60008;50.826;6.896;2023-03-01T00:37:38;10.75;;;4.95;;
72132;SDS011;60008;50.826;6.896;2023-03-01T00:40:25;11.23;;;4.53;;
72132;SDS011;60008;50.826;6.896;2023-03-01T00:43:14;11.27;;;4.60;;
72132;SDS011;60008;50.826;6.896;2023-03-01T00:46:00;15.75;;;4.70;;
72132;SDS011;60008;50.826;6.896;2023-03-01T00:48:46;9.70;;;3.90;;
72132;SDS011;60008;50.826;6.896;2023-03-01T00:51:31;8.90;;;3.78;;
72132;SDS011;60008;50.826;6.896;2023-03-01T00:54:16;8.30;;;3.72;;
72132;SDS011;60008;50.826;6.896;2023-03-01T00:57:01;9.38;;;4.13;;
72132;SDS011;60008;50.826;6.896;2023-03-01T00:59:46;8.52;;;4.30;;
72132;SDS011;60008;50.826;6.896;2023-03-01T01:02:32;9.83;;;3.73;;
72132;SDS011;60008;50.826;6.896;2023-03-01T01:05:18;10.27;;;4.00;;
72132;SDS011;60008;50.826;6.896;2023-03-01T01:08:05;10.98;;;4.32;;
72132;SDS011;60008;50.826;6.896;2023-03-01T01:10:50;8.25;;;3.80;;
72132;SDS011;60008;50.826;6.896;2023-03-01T01:13:35;11.55;;;4.32;;
72132;SDS011;60008;50.826;6.896;2023-03-01T01:16:22;14.50;;;3.83;;
72132;SDS011;60008;50.826;6.896;2023-03-01T01:19:09;8.23;;;3.53;;
72132;SDS011;60008;50.826;6.896;2023-03-01T01:21:55;8.20;;;3.60;;
72132;SDS011;60008;50.826;6.896;2023-03-01T01:24:40;9.70;;;4.10;;
72132;SDS011;60008;50.826;6.896;2023-03-01T01:27:25;8.60;;;3.67;;
72132;SDS011;60008;50.826;6.896;2023-03-01T01:30:11;7.00;;;3.13;;
72132;SDS011;60008;50.826;6.896;2023-03-01T01:32:56;7.20;;;3.35;;
72132;SDS011;60008;50.826;6.896;2023-03-01T01:35:44;10.45;;;4.53;;
72132;SDS011;60008;50.826;6.896;2023-03-01T01:38:29;8.57;;;3.67;;
72132;SDS011;60008;50.826;6.896;2023-03-01T01:41:15;10.10;;;3.90;;
72132;SDS011;60008;50.826;6.896;2023-03-01T01:47:06;6.78;;;3.40;;
72132;SDS011;60008;50.826;6.896;2023-03-01T01:49:59;11.02;;;3.55;;
72132;SDS011;60008;50.826;6.896;2023-03-01T01:52:44;7.88;;;3.33;;
72132;SDS011;60008;50.826;6.896;2023-03-01T01:55:30;8.35;;;3.85;;
72132;SDS011;60008;50.826;6.896;2023-03-01T01:58:17;7.27;;;3.40;;
72132;SDS011;60008;50.826;6.896;2023-03-01T02:01:04;10.70;;;3.67;;
72132;SDS011;60008;50.826;6.896;2023-03-01T02:03:49;7.80;;;3.70;;
72132;SDS011;60008;50.826;6.896;2023-03-01T02:06:43;10.15;;;4.15;;
72132;SDS011;60008;50.826;6.896;2023-03-01T02:09:32;7.40;;;3.00;;
72132;SDS011;60008;50.826;6.896;2023-03-01T02:12:19;7.43;;;3.23;;
72132;SDS011;60008;50.826;6.896;2023-03-01T02:15:07;10.13;;;3.40;;
72132;SDS011;60008;50.826;6.896;2023-03-01T02:17:53;8.38;;;3.65;;
72132;SDS011;60008;50.826;6.896;2023-03-01T02:23:33;8.27;;;3.83;;
72132;SDS011;60008;50.826;6.896;2023-03-01T02:26:36;7.73;;;3.40;;
72132;SDS011;60008;50.826;6.896;2023-03-01T02:29:31;6.03;;;2.63;;
72132;SDS011;60008;50.826;6.896;2023-03-01T02:32:16;7.20;;;3.17;;
72132;SDS011;60008;50.826;6.896;2023-03-01T02:35:10;7.65;;;3.70;;
72132;SDS011;60008;50.826;6.896;2023-03-01T02:37:58;9.10;;;3.92;;
72132;SDS011;60008;50.826;6.896;2023-03-01T02:40:45;7.80;;;3.40;;
72132;SDS011;60008;50.826;6.896;2023-03-01T02:43:31;9.40;;;3.90;;
72132;SDS011;60008;50.826;6.896;2023-03-01T02:46:18;7.07;;;3.25;;
72132;SDS011;60008;50.826;6.896;2023-03-01T02:49:16;15.32;;;3.45;;
72132;SDS011;60008;50.826;6.896;2023-03-01T02:55:08;9.57;;;3.80;;
72132;SDS011;60008;50.826;6.896;2023-03-01T02:57:55;12.43;;;3.47;;
72132;SDS011;60008;50.826;6.896;2023-03-01T03:00:41;8.85;;;3.83;;
72132;SDS011;60008;50.826;6.896;2023-03-01T03:03:31;10.05;;;3.35;;
72132;SDS011;60008;50.826;6.896;2023-03-01T03:06:16;8.90;;;3.63;;
72132;SDS011;60008;50.826;6.896;2023-03-01T03:09:01;10.40;;;3.83;;
72132;SDS011;60008;50.826;6.896;2023-03-01T03:11:47;9.02;;;4.13;;
72132;SDS011;60008;50.826;6.896;2023-03-01T03:14:32;7.70;;;3.80;;
72132;SDS011;60008;50.826;6.896;2023-03-01T03:17:19;8.60;;;3.67;;
72132;SDS011;60008;50.826;6.896;2023-03-01T03:20:04;7.82;;;3.90;;
72132;SDS011;60008;50.826;6.896;2023-03-01T03:22:52;6.90;;;3.70;;
72132;SDS011;60008;50.826;6.896;2023-03-01T03:25:39;7.63;;;3.53;;
72132;SDS011;60008;50.826;6.896;2023-03-01T03:28:24;8.90;;;3.00;;
72132;SDS011;60008;50.826;6.896;2023-03-01T03:31:09;9.98;;;3.97;;
72132;SDS011;60008;50.826;6.896;2023-03-01T03:33:54;9.23;;;3.63;;
72132;SDS011;60008;50.826;6.896;2023-03-01T03:36:39;7.83;;;3.53;;
72132;SDS011;60008;50.826;6.896;2023-03-01T03:39:24;9.05;;;4.10;;
72132;SDS011;60008;50.826;6.896;2023-03-01T03:42:10;9.18;;;3.53;;
72132;SDS011;60008;50.826;6.896;2023-03-01T03:44:55;10.82;;;4.10;;
72132;SDS011;60008;50.826;6.896;2023-03-01T03:47:41;7.60;;;3.95;;
72132;SDS011;60008;50.826;6.896;2023-03-01T03:50:26;7.80;;;3.77;;
72132;SDS011;60008;50.826;6.896;2023-03-01T03:53:11;10.15;;;3.78;;
72132;SDS011;60008;50.826;6.896;2023-03-01T03:55:57;9.45;;;3.88;;
72132;SDS011;60008;50.826;6.896;2023-03-01T03:58:42;7.53;;;3.20;;
72132;SDS011;60008;50.826;6.896;2023-03-01T04:01:27;9.82;;;3.83;;
72132;SDS011;60008;50.826;6.896;2023-03-01T04:04:12;9.90;;;3.77;;
72132;SDS011;60008;50.826;6.896;2023-03-01T04:06:58;11.25;;;3.83;;
72132;SDS011;60008;50.826;6.896;2023-03-01T04:09:43;10.52;;;3.47;;
72132;SDS011;60008;50.826;6.896;2023-03-01T04:12:28;8.05;;;3.47;;
72132;SDS011;60008;50.826;6.896;2023-03-01T04:15:13;8.10;;;3.50;;
72132;SDS011;60008;50.826;6.896;2023-03-01T04:17:58;10.63;;;4.30;;
72132;SDS011;60008;50.826;6.896;2023-03-01T04:20:44;9.40;;;3.78;;
72132;SDS011;60008;50.826;6.896;2023-03-01T04:23:30;9.40;;;3.53;;
72132;SDS011;60008;50.826;6.896;2023-03-01T04:26:15;12.27;;;3.72;;
72132;SDS011;60008;50.826;6.896;2023-03-01T04:29:00;9.25;;;3.75;;
72132;SDS011;60008;50.826;6.896;2023-03-01T04:31:45;9.00;;;4.03;;
72132;SDS011;60008;50.826;6.896;2023-03-01T04:34:30;9.27;;;3.92;;
72132;SDS011;60008;50.826;6.896;2023-03-01T04:37:15;7.70;;;3.60;;
72132;SDS011;60008;50.826;6.896;2023-03-01T04:40:04;9.05;;;3.22;;
72132;SDS011;60008;50.826;6.896;2023-03-01T04:43:01;11.38;;;3.65;;
72132;SDS011;60008;50.826;6.896;2023-03-01T04:45:47;7.87;;;3.37;;
72132;SDS011;60008;50.826;6.896;2023-03-01T04:48:32;8.15;;;4.03;;
72132;SDS011;60008;50.826;6.896;2023-03-01T04:51:17;8.63;;;3.85;;
72132;SDS011;60008;50.826;6.896;2023-03-01T04:54:03;11.27;;;3.90;;
72132;SDS011;60008;50.826;6.896;2023-03-01T04:56:48;13.45;;;3.53;;
72132;SDS011;60008;50.826;6.896;2023-03-01T04:59:33;10.00;;;4.07;;
72132;SDS011;60008;50.826;6.896;2023-03-01T05:02:18;10.15;;;3.67;;
72132;SDS011;60008;50.826;6.896;2023-03-01T05:05:03;10.80;;;3.60;;
72132;SDS011;60008;50.826;6.896;2023-03-01T05:07:50;9.48;;;4.00;;
72132;SDS011;60008;50.826;6.896;2023-03-01T05:10:36;8.50;;;3.78;;
72132;SDS011;60008;50.826;6.896;2023-03-01T05:13:23;9.47;;;4.57;;
72132;SDS011;60008;50.826;6.896;2023-03-01T05:16:08;10.38;;;4.22;;
72132;SDS011;60008;50.826;6.896;2023-03-01T05:18:57;7.78;;;3.95;;
72132;SDS011;60008;50.826;6.896;2023-03-01T05:21:43;7.70;;;3.47;;
72132;SDS011;60008;50.826;6.896;2023-03-01T05:24:46;9.43;;;3.65;;
72132;SDS011;60008;50.826;6.896;2023-03-01T05:27:31;6.73;;;3.40;;
72132;SDS011;60008;50.826;6.896;2023-03-01T05:30:16;11.73;;;4.00;;
72132;SDS011;60008;50.826;6.896;2023-03-01T05:33:02;9.50;;;4.10;;
72132;SDS011;60008;50.826;6.896;2023-03-01T05:35:47;9.90;;;4.55;;
72132;SDS011;60008;50.826;6.896;2023-03-01T05:38:33;8.07;;;4.25;;
72132;SDS011;60008;50.826;6.896;2023-03-01T05:41:18;17.87;;;4.63;;
72132;SDS011;60008;50.826;6.896;2023-03-01T05:44:05;10.43;;;4.43;;
72132;SDS011;60008;50.826;6.896;2023-03-01T05:46:51;8.27;;;4.38;;
72132;SDS011;60008;50.826;6.896;2023-03-01T05:49:36;8.15;;;3.65;;
72132;SDS011;60008;50.826;6.896;2023-03-01T05:52:23;11.50;;;4.25;;
72132;SDS011;60008;50.826;6.896;2023-03-01T05:55:08;15.73;;;4.63;;
72132;SDS011;60008;50.826;6.896;2023-03-01T05:57:54;13.90;;;4.50;;
72132;SDS011;60008;50.826;6.896;2023-03-01T06:00:39;9.82;;;4.13;;
72132;SDS011;60008;50.826;6.896;2023-03-01T06:03:25;12.35;;;4.60;;
72132;SDS011;60008;50.826;6.896;2023-03-01T06:06:10;9.60;;;3.88;;
72132;SDS011;60008;50.826;6.896;2023-03-01T06:08:55;11.43;;;4.20;;
72132;SDS011;60008;50.826;6.896;2023-03-01T06:11:40;10.88;;;4.25;;
72132;SDS011;60008;50.826;6.896;2023-03-01T06:14:25;8.20;;;4.22;;
72132;SDS011;60008;50.826;6.896;2023-03-01T06:17:10;8.73;;;4.15;;
72132;SDS011;60008;50.826;6.896;2023-03-01T06:19:55;9.48;;;3.95;;
72132;SDS011;60008;50.826;6.896;2023-03-01T06:22:40;10.00;;;4.20;;
72132;SDS011;60008;50.826;6.896;2023-03-01T06:25:26;10.60;;;4.60;;
72132;SDS011;60008;50.826;6.896;2023-03-01T06:28:11;11.80;;;4.80;;
72132;SDS011;60008;50.826;6.896;2023-03-01T06:30:56;11.60;;;4.60;;
72132;SDS011;60008;50.826;6.896;2023-03-01T06:33:41;11.82;;;4.20;;
72132;SDS011;60008;50.826;6.896;2023-03-01T06:36:29;10.40;;;4.60;;
72132;SDS011;60008;50.826;6.896;2023-03-01T06:39:15;11.40;;;3.78;;
72132;SDS011;60008;50.826;6.896;2023-03-01T06:42:01;13.98;;;4.10;;
72132;SDS011;60008;50.826;6.896;2023-03-01T06:44:46;9.07;;;4.13;;
72132;SDS011;60008;50.826;6.896;2023-03-01T06:47:32;10.38;;;4.72;;
72132;SDS011;60008;50.826;6.896;2023-03-01T06:50:20;10.40;;;4.40;;
72132;SDS011;60008;50.826;6.896;2023-03-01T06:53:06;8.73;;;4.15;;
72132;SDS011;60008;50.826;6.896;2023-03-01T06:55:54;10.90;;;4.70;;
72132;SDS011;60008;50.826;6.896;2023-03-01T06:58:43;9.45;;;4.55;;
72132;SDS011;60008;50.826;6.896;2023-03-01T07:01:29;14.48;;;4.55;;
72132;SDS011;60008;50.826;6.896;2023-03-01T07:04:14;11.23;;;4.67;;
72132;SDS011;60008;50.826;6.896;2023-03-01T07:06:59;11.20;;;4.60;;
72132;SDS011;60008;50.826;6.896;2023-03-01T07:09:45;10.27;;;4.60;;
72132;SDS011;60008;50.826;6.896;2023-03-01T07:12:31;11.75;;;5.07;;
72132;SDS011;60008;50.826;6.896;2023-03-01T07:15:16;13.63;;;5.07;;
72132;SDS011;60008;50.826;6.896;2023-03-01T07:18:01;11.47;;;4.80;;
72132;SDS011;60008;50.826;6.896;2023-03-01T07:20:47;16.08;;;5.68;;
72132;SDS011;60008;50.826;6.896;2023-03-01T07:23:31;12.23;;;5.15;;
72132;SDS011;60008;50.826;6.896;2023-03-01T07:26:17;17.83;;;5.22;;
72132;SDS011;60008;50.826;6.896;2023-03-01T07:29:02;13.73;;;5.97;;
72132;SDS011;60008;50.826;6.896;2023-03-01T07:31:49;14.97;;;5.60;;
72132;SDS011;60008;50.826;6.896;2023-03-01T07:34:33;16.88;;;6.55;;
72132;SDS011;60008;50.826;6.896;2023-03-01T07:37:18;12.55;;;5.72;;
72132;SDS011;60008;50.826;6.896;2023-03-01T07:40:04;15.15;;;6.32;;
72132;SDS011;60008;50.826;6.896;2023-03-01T07:42:49;15.05;;;6.20;;
72132;SDS011;60008;50.826;6.896;2023-03-01T07:45:40;14.23;;;6.20;;
72132;SDS011;60008;50.826;6.896;2023-03-01T07:48:25;12.02;;;5.78;;
72132;SDS011;60008;50.826;6.896;2023-03-01T07:51:10;13.00;;;5.55;;
72132;SDS011;60008;50.826;6.896;2023-03-01T07:53:55;13.07;;;5.38;;
72132;SDS011;60008;50.826;6.896;2023-03-01T07:56:40;11.38;;;5.60;;
72132;SDS011;60008;50.826;6.896;2023-03-01T07:59:25;13.73;;;5.00;;
72132;SDS011;60008;50.826;6.896;2023-03-01T08:02:13;12.57;;;5.78;;
72132;SDS011;60008;50.826;6.896;2023-03-01T08:04:59;13.18;;;5.32;;
72132;SDS011;60008;50.826;6.896;2023-03-01T08:07:45;12.10;;;5.63;;
72132;SDS011;60008;50.826;6.896;2023-03-01T08:10:30;12.27;;;5.13;;
72132;SDS011;60008;50.826;6.896;2023-03-01T08:13:15;11.50;;;5.43;;
72132;SDS011;60008;50.826;6.896;2023-03-01T08:16:00;14.10;;;6.60;;
72132;SDS011;60008;50.826;6.896;2023-03-01T08:18:47;17.65;;;5.38;;
72132;SDS011;60008;50.826;6.896;2023-03-01T08:21:31;11.35;;;5.00;;
72132;SDS011;60008;50.826;6.896;2023-03-01T08:24:16;14.23;;;6.00;;
72132;SDS011;60008;50.826;6.896;2023-03-01T08:27:01;14.83;;;6.00;;
72132;SDS011;60008;50.826;6.896;2023-03-01T08:29:47;11.80;;;5.20;;
72132;SDS011;60008;50.826;6.896;2023-03-01T08:32:36;12.52;;;4.90;;
72132;SDS011;60008;50.826;6.896;2023-03-01T08:35:22;13.63;;;6.60;;
72132;SDS011;60008;50.826;6.896;2023-03-01T08:38:08;16.55;;;6.18;;
72132;SDS011;60008;50.826;6.896;2023-03-01T08:40:53;16.70;;;5.93;;
72132;SDS011;60008;50.826;6.896;2023-03-01T08:43:38;12.20;;;6.15;;
72132;SDS011;60008;50.826;6.896;2023-03-01T08:46:23;11.68;;;5.32;;
72132;SDS011;60008;50.826;6.896;2023-03-01T08:49:13;10.77;;;5.53;;
72132;SDS011;60008;50.826;6.896;2023-03-01T08:52:01;11.00;;;4.57;;
72132;SDS011;60008;50.826;6.896;2023-03-01T08:54:47;13.67;;;4.90;;
72132;SDS011;60008;50.826;6.896;2023-03-01T08:57:33;9.15;;;4.22;;
72132;SDS011;60008;50.826;6.896;2023-03-01T09:00:18;6.88;;;2.92;;
72132;SDS011;60008;50.826;6.896;2023-03-01T09:03:03;15.93;;;5.50;;
72132;SDS011;60008;50.826;6.896;2023-03-01T09:05:49;13.80;;;5.75;;
72132;SDS011;60008;50.826;6.896;2023-03-01T09:08:38;17.00;;;5.93;;
72132;SDS011;60008;50.826;6.896;2023-03-01T09:11:25;5.65;;;2.80;;
72132;SDS011;60008;50.826;6.896;2023-03-01T09:14:10;12.95;;;6.18;;
72132;SDS011;60008;50.826;6.896;2023-03-01T09:16:55;15.07;;;6.43;;
72132;SDS011;60008;50.826;6.896;2023-03-01T09:19:41;15.68;;;5.85;;
72132;SDS011;60008;50.826;6.896;2023-03-01T09:22:26;5.90;;;3.07;;
72132;SDS011;60008;50.826;6.896;2023-03-01T09:25:11;11.10;;;5.53;;
72132;SDS011;60008;50.826;6.896;2023-03-01T09:27:56;16.52;;;5.85;;
72132;SDS011;60008;50.826;6.896;2023-03-01T09:30:41;14.00;;;6.32;;
72132;SDS011;60008;50.826;6.896;2023-03-01T09:33:26;13.30;;;5.47;;
72132;SDS011;60008;50.826;6.896;2023-03-01T09:36:15;13.00;;;6.13;;
72132;SDS011;60008;50.826;6.896;2023-03-01T09:39:02;15.25;;;6.65;;
72132;SDS011;60008;50.826;6.896;2023-03-01T09:47:42;9.20;;;4.18;;
72132;SDS011;60008;50.826;6.896;2023-03-01T09:50:28;11.63;;;5.57;;
72132;SDS011;60008;50.826;6.896;2023-03-01T09:53:21;13.52;;;5.82;;
72132;SDS011;60008;50.826;6.896;2023-03-01T10:02:33;10.63;;;5.32;;
72132;SDS011;60008;50.826;6.896;2023-03-01T10:09:13;11.90;;;5.32;;
72132;SDS011;60008;50.826;6.896;2023-03-01T10:12:02;12.60;;;6.28;;
72132;SDS011;60008;50.826;6.896;2023-03-01T10:15:11;13.90;;;7.40;;
72132;SDS011;60008;50.826;6.896;2023-03-01T10:18:00;13.57;;;5.97;;
72132;SDS011;60008;50.826;6.896;2023-03-01T10:20:59;13.27;;;6.37;;
72132;SDS011;60008;50.826;6.896;2023-03-01T10:23:47;13.43;;;6.82;;
72132;SDS011;60008;50.826;6.896;2023-03-01T10:29:49;7.75;;;3.85;;
72132;SDS011;60008;50.826;6.896;2023-03-01T10:32:43;15.32;;;6.30;;
72132;SDS011;60008;50.826;6.896;2023-03-01T10:35:31;14.87;;;6.63;;
72132;SDS011;60008;50.826;6.896;2023-03-01T10:38:18;10.95;;;5.15;;
72132;SDS011;60008;50.826;6.896;2023-03-01T10:41:05;12.38;;;6.53;;
72132;SDS011;60008;50.826;6.896;2023-03-01T10:43:52;12.80;;;6.38;;
72132;SDS011;60008;50.826;6.896;2023-03-01T10:46:39;12.40;;;5.95;;
72132;SDS011;60008;50.826;6.896;2023-03-01T10:49:24;15.37;;;5.77;;
72132;SDS011;60008;50.826;6.896;2023-03-01T10:52:11;14.02;;;6.88;;
72132;SDS011;60008;50.826;6.896;2023-03-01T10:55:26;10.40;;;5.60;;
72132;SDS011;60008;50.826;6.896;2023-03-01T11:01:24;12.05;;;6.55;;
72132;SDS011;60008;50.826;6.896;2023-03-01T11:04:10;13.37;;;6.73;;
72132;SDS011;60008;50.826;6.896;2023-03-01T11:06:59;10.93;;;5.65;;
72132;SDS011;60008;50.826;6.896;2023-03-01T11:09:45;14.88;;;6.82;;
72132;SDS011;60008;50.826;6.896;2023-03-01T11:12:30;10.75;;;5.70;;
72132;SDS011;60008;50.826;6.896;2023-03-01T11:15:21;13.68;;;6.43;;
72132;SDS011;60008;50.826;6.896;2023-03-01T11:18:18;13.93;;;7.03;;
72132;SDS011;60008;50.826;6.896;2023-03-01T11:21:05;16.17;;;7.28;;
72132;SDS011;60008;50.826;6.896;2023-03-01T11:23:53;14.80;;;7.35;;
72132;SDS011;60008;50.826;6.896;2023-03-01T11:26:41;12.32;;;6.50;;
72132;SDS011;60008;50.826;6.896;2023-03-01T11:29:40;13.50;;;6.70;;
72132;SDS011;60008;50.826;6.896;2023-03-01T11:32:38;17.83;;;7.10;;
72132;SDS011;60008;50.826;6.896;2023-03-01T11:35:27;4.18;;;2.15;;
72132;SDS011;60008;50.826;6.896;2023-03-01T11:38:24;11.68;;;6.45;;
72132;SDS011;60008;50.826;6.896;2023-03-01T11:41:30;11.15;;;5.80;;
72132;SDS011;60008;50.826;6.896;2023-03-01T11:44:21;14.25;;;6.10;;
72132;SDS011;60008;50.826;6.896;2023-03-01T11:56:40;11.73;;;6.10;;
72132;SDS011;60008;50.826;6.896;2023-03-01T11:59:45;11.85;;;4.75;;
72132;SDS011;60008;50.826;6.896;2023-03-01T12:02:37;10.70;;;5.23;;
72132;SDS011;60008;50.826;6.896;2023-03-01T12:24:50;13.60;;;5.72;;
72132;SDS011;60008;50.826;6.896;2023-03-01T12:27:58;9.85;;;5.05;;
72132;SDS011;60008;50.826;6.896;2023-03-01T12:31:07;12.52;;;5.25;;
72132;SDS011;60008;50.826;6.896;2023-03-01T12:40:38;10.63;;;5.20;;
72132;SDS011;60008;50.826;6.896;2023-03-01T12:52:38;9.65;;;5.03;;
72132;SDS011;60008;50.826;6.896;2023-03-01T12:55:33;12.00;;;5.90;;
72132;SDS011;60008;50.826;6.896;2023-03-01T12:58:28;10.75;;;4.35;;
72132;SDS011;60008;50.826;6.896;2023-03-01T13:07:44;9.40;;;4.13;;
72132;SDS011;60008;50.826;6.896;2023-03-01T13:10:45;11.98;;;4.95;;
72132;SDS011;60008;50.826;6.896;2023-03-01T13:13:34;9.52;;;4.43;;
72132;SDS011;60008;50.826;6.896;2023-03-01T13:19:15;11.07;;;5.23;;
72132;SDS011;60008;50.826;6.896;2023-03-01T13:22:24;12.85;;;5.32;;
72132;SDS011;60008;50.826;6.896;2023-03-01T13:25:17;11.27;;;4.95;;
72132;SDS011;60008;50.826;6.896;2023-03-01T13:34:06;11.40;;;5.10;;
72132;SDS011;60008;50.826;6.896;2023-03-01T13:37:30;10.35;;;4.32;;
72132;SDS011;60008;50.826;6.896;2023-03-01T13:46:16;11.10;;;3.83;;
72132;SDS011;60008;50.826;6.896;2023-03-01T13:49:09;10.80;;;4.87;;
72132;SDS011;60008;50.826;6.896;2023-03-01T13:51:59;11.30;;;5.15;;
72132;SDS011;60008;50.826;6.896;2023-03-01T13:54:44;10.70;;;4.88;;
72132;SDS011;60008;50.826;6.896;2023-03-01T13:57:30;10.57;;;4.78;;
72132;SDS011;60008;50.826;6.896;2023-03-01T14:00:40;14.43;;;5.65;;
72132;SDS011;60008;50.826;6.896;2023-03-01T14:03:25;12.47;;;4.60;;
72132;SDS011;60008;50.826;6.896;2023-03-01T14:06:15;11.32;;;4.30;;
72132;SDS011;60008;50.826;6.896;2023-03-01T14:12:32;10.05;;;4.18;;
72132;SDS011;60008;50.826;6.896;2023-03-01T14:15:29;10.43;;;4.60;;
72132;SDS011;60008;50.826;6.896;2023-03-01T14:18:20;9.87;;;4.67;;
72132;SDS011;60008;50.826;6.896;2023-03-01T14:21:13;9.32;;;4.40;;
72132;SDS011;60008;50.826;6.896;2023-03-01T14:24:00;10.85;;;4.80;;
72132;SDS011;60008;50.826;6.896;2023-03-01T14:26:45;10.90;;;4.95;;
72132;SDS011;60008;50.826;6.896;2023-03-01T14:29:35;8.52;;;3.80;;
72132;SDS011;60008;50.826;6.896;2023-03-01T14:32:23;9.43;;;4.43;;
72132;SDS011;60008;50.826;6.896;2023-03-01T14:35:21;9.27;;;4.80;;
72132;SDS011;60008;50.826;6.896;2023-03-01T14:38:19;10.75;;;4.70;;
72132;SDS011;60008;50.826;6.896;2023-03-01T14:41:09;11.48;;;4.78;;
72132;SDS011;60008;50.826;6.896;2023-03-01T14:44:00;11.30;;;4.95;;
72132;SDS011;60008;50.826;6.896;2023-03-01T14:46:51;10.47;;;4.33;;
72132;SDS011;60008;50.826;6.896;2023-03-01T14:49:39;9.00;;;4.05;;
72132;SDS011;60008;50.826;6.896;2023-03-01T14:52:30;14.20;;;4.78;;
72132;SDS011;60008;50.826;6.896;2023-03-01T14:55:20;11.93;;;4.60;;
72132;SDS011;60008;50.826;6.896;2023-03-01T14:58:13;11.88;;;4.57;;
72132;SDS011;60008;50.826;6.896;2023-03-01T15:01:02;7.30;;;3.17;;
72132;SDS011;60008;50.826;6.896;2023-03-01T15:03:49;10.80;;;4.60;;
72132;SDS011;60008;50.826;6.896;2023-03-01T15:06:35;8.50;;;4.03;;
72132;SDS011;60008;50.826;6.896;2023-03-01T15:09:21;11.00;;;3.95;;
72132;SDS011;60008;50.826;6.896;2023-03-01T15:15:21;7.67;;;3.60;;
72132;SDS011;60008;50.826;6.896;2023-03-01T15:18:22;8.02;;;3.50;;
72132;SDS011;60008;50.826;6.896;2023-03-01T15:21:18;8.02;;;3.85;;
72132;SDS011;60008;50.826;6.896;2023-03-01T15:24:16;9.07;;;3.80;;
72132;SDS011;60008;50.826;6.896;2023-03-01T15:27:04;9.23;;;3.88;;
72132;SDS011;60008;50.826;6.896;2023-03-01T15:29:57;9.47;;;3.97;;
72132;SDS011;60008;50.826;6.896;2023-03-01T15:32:44;11.50;;;4.40;;
72132;SDS011;60008;50.826;6.896;2023-03-01T15:35:38;7.60;;;3.88;;
72132;SDS011;60008;50.826;6.896;2023-03-01T15:38:34;14.18;;;4.50;;
72132;SDS011;60008;50.826;6.896;2023-03-01T15:41:32;8.00;;;3.55;;
72132;SDS011;60008;50.826;6.896;2023-03-01T15:44:32;9.70;;;4.70;;
72132;SDS011;60008;50.826;6.896;2023-03-01T15:47:29;8.57;;;3.80;;
72132;SDS011;60008;50.826;6.896;2023-03-01T15:50:22;10.85;;;4.72;;
72132;SDS011;60008;50.826;6.896;2023-03-01T15:53:11;7.78;;;3.13;;
72132;SDS011;60008;50.826;6.896;2023-03-01T15:55:59;9.93;;;4.57;;
72132;SDS011;60008;50.826;6.896;2023-03-01T15:58:44;6.77;;;2.40;;
72132;SDS011;60008;50.826;6.896;2023-03-01T16:01:29;11.65;;;4.10;;
72132;SDS011;60008;50.826;6.896;2023-03-01T16:04:15;8.50;;;3.83;;
72132;SDS011;60008;50.826;6.896;2023-03-01T16:07:05;7.78;;;3.33;;
72132;SDS011;60008;50.826;6.896;2023-03-01T16:09:51;14.73;;;4.18;;
72132;SDS011;60008;50.826;6.896;2023-03-01T16:12:36;8.83;;;3.90;;
72132;SDS011;60008;50.826;6.896;2023-03-01T16:15:25;9.88;;;4.07;;
72132;SDS011;60008;50.826;6.896;2023-03-01T16:18:17;9.30;;;4.13;;
72132;SDS011;60008;50.826;6.896;2023-03-01T16:21:02;8.55;;;4.03;;
72132;SDS011;60008;50.826;6.896;2023-03-01T16:23:47;9.63;;;3.83;;
72132;SDS011;60008;50.826;6.896;2023-03-01T16:26:32;11.20;;;4.40;;
72132;SDS011;60008;50.826;6.896;2023-03-01T16:29:17;9.05;;;3.92;;
72132;SDS011;60008;50.826;6.896;2023-03-01T16:32:02;10.00;;;4.05;;
72132;SDS011;60008;50.826;6.896;2023-03-01T16:34:48;9.27;;;4.10;;
72132;SDS011;60008;50.826;6.896;2023-03-01T16:37:33;8.65;;;3.70;;
72132;SDS011;60008;50.826;6.896;2023-03-01T16:40:20;9.87;;;3.37;;
72132;SDS011;60008;50.826;6.896;2023-03-01T16:43:09;7.80;;;3.58;;
72132;SDS011;60008;50.826;6.896;2023-03-01T16:45:56;8.27;;;3.90;;
72132;SDS011;60008;50.826;6.896;2023-03-01T16:48:41;11.00;;;3.70;;
72132;SDS011;60008;50.826;6.896;2023-03-01T16:51:25;9.73;;;4.07;;
72132;SDS011;60008;50.826;6.896;2023-03-01T16:54:10;8.33;;;3.80;;
72132;SDS011;60008;50.826;6.896;2023-03-01T16:56:55;9.32;;;3.17;;
72132;SDS011;60008;50.826;6.896;2023-03-01T16:59:41;10.07;;;3.58;;
72132;SDS011;60008;50.826;6.896;2023-03-01T17:02:26;15.38;;;4.38;;
72132;SDS011;60008;50.826;6.896;2023-03-01T17:05:12;8.13;;;3.55;;
72132;SDS011;60008;50.826;6.896;2023-03-01T17:07:57;10.50;;;3.27;;
72132;SDS011;60008;50.826;6.896;2023-03-01T17:10:44;7.20;;;2.83;;
72132;SDS011;60008;50.826;6.896;2023-03-01T17:13:29;8.85;;;3.35;;
72132;SDS011;60008;50.826;6.896;2023-03-01T17:16:15;8.50;;;3.58;;
72132;SDS011;60008;50.826;6.896;2023-03-01T17:19:02;9.55;;;3.47;;
72132;SDS011;60008;50.826;6.896;2023-03-01T17:21:47;8.20;;;3.70;;
72132;SDS011;60008;50.826;6.896;2023-03-01T17:24:35;8.85;;;3.85;;
72132;SDS011;60008;50.826;6.896;2023-03-01T17:27:22;8.95;;;3.38;;
72132;SDS011;60008;50.826;6.896;2023-03-01T17:30:09;9.23;;;3.85;;
72132;SDS011;60008;50.826;6.896;2023-03-01T17:32:56;9.95;;;3.40;;
72132;SDS011;60008;50.826;6.896;2023-03-01T17:35:41;8.57;;;3.57;;
72132;SDS011;60008;50.826;6.896;2023-03-01T17:38:29;8.57;;;3.90;;
72132;SDS011;60008;50.826;6.896;2023-03-01T17:41:14;8.73;;;3.17;;
72132;SDS011;60008;50.826;6.896;2023-03-01T17:44:02;11.27;;;4.03;;
72132;SDS011;60008;50.826;6.896;2023-03-01T17:46:47;9.68;;;3.45;;
72132;SDS011;60008;50.826;6.896;2023-03-01T17:49:32;9.77;;;3.90;;
72132;SDS011;60008;50.826;6.896;2023-03-01T17:52:17;10.38;;;3.60;;
72132;SDS011;60008;50.826;6.896;2023-03-01T17:55:02;10.35;;;3.88;;
72132;SDS011;60008;50.826;6.896;2023-03-01T17:57:47;10.00;;;3.70;;
72132;SDS011;60008;50.826;6.896;2023-03-01T18:00:32;7.65;;;3.50;;
72132;SDS011;60008;50.826;6.896;2023-03-01T18:03:19;9.23;;;3.77;;
72132;SDS011;60008;50.826;6.896;2023-03-01T18:06:09;9.18;;;3.83;;
72132;SDS011;60008;50.826;6.896;2023-03-01T18:09:12;8.02;;;3.45;;
72132;SDS011;60008;50.826;6.896;2023-03-01T18:11:58;8.27;;;3.47;;
72132;SDS011;60008;50.826;6.896;2023-03-01T18:14:43;9.85;;;4.20;;
72132;SDS011;60008;50.826;6.896;2023-03-01T18:17:28;8.00;;;3.40;;
72132;SDS011;60008;50.826;6.896;2023-03-01T18:20:13;11.50;;;4.40;;
72132;SDS011;60008;50.826;6.896;2023-03-01T18:23:00;8.88;;;3.47;;
72132;SDS011;60008;50.826;6.896;2023-03-01T18:25:45;10.52;;;3.67;;
72132;SDS011;60008;50.826;6.896;2023-03-01T18:28:30;8.00;;;3.70;;